Terminal Aerodrome Forecast
Issued by NWS

Home | Current Version | Previous Version | Text Only | Print | Product List | Glossary On
Versions: 1 2 3 4 5 6 7 8 9 10 11 12 13 14 15 16 17 18
000
FTUS44 KEPZ 052331
TAFDMN
TAF
KDMN 052331Z 0600/0624 20012KT P6SM SCT060 SCT080
     FM060400 25008KT P6SM FEW060 SCT120
     FM061800 30010KT P6SM SCT070
     FM062100 29012KT P6SM SCT070 BKN250=

USA.gov is the U.S. government's official web portal to all federal, state and local government web resources and services.